Latest Coastal Weather Observations for Wadeye (Port Keats)

IDD60701

Issued at 1:45 pm CST Wednesday 24 September 2014 (issued every 10 minutes, with the page automatically refreshed every 10 minutes)

About coastal observations | Map of coastal stations | Coastal observations for NT | Marine services | Other Formats
Station Details ID: 014948 Name: PORT KEATS AIRPORT Lat: -14.25 Lon: 129.53 Height: 28.0 m
Data from the previous 72 hours. | See also: Recent months at Wadeye (Port Keats)
Date/Time
CST
Temp

°C
Wind Pressure Rain
since 9am
mm
Weather Cloud Vis
km
Sea
Height
m
Swell
Dir
 
Speed
knots
Gust
knots
hPa Trend Height
m
Period
s
Dir
24/01:30pm 31.2 NW 9 16 1012.5 - 0.0 - - - - - - -
24/01:00pm 31.2 NW 9 13 1012.9 - 0.0 - - - - - - -
24/12:30pm 31.0 W 8 13 1013.5 - 0.0 - - - - - - -
24/12:00pm 31.3 E 2 5 1014.2 - 0.0 - - - - - - -
24/11:30am 31.1 SE 5 10 1014.4 - 0.0 - - - - - - -
24/11:00am 29.8 NE 4 7 1014.8 - 0.0 - - - - - - -
24/10:30am 28.7 NE 4 6 1014.9 - 0.0 - - - - - - -
24/10:00am 28.4 NNE 4 7 1014.9 - 0.0 - - - - - - -
24/09:30am 27.4 ESE 3 5 1014.8 - 0.0 - - - - - - -
24/09:00am 26.6 ESE 3 5 1014.6 - 0.0 - - - - - - -
24/08:30am 26.3 E 5 6 1014.2 - 0.0 - - - - - - -
24/08:00am 24.9 ENE 3 5 1013.8 - 0.0 - - - - - - -
24/07:30am 24.0 SE 3 4 1013.4 - 0.0 - - - - - - -
24/07:00am 22.8 CALM 0 0 1012.9 - 0.0 - - - - - - -
24/06:30am 23.0 CALM 0 0 1012.7 - 0.0 - - - - - - -
24/06:00am 22.9 CALM 0 0 1012.6 - 0.0 - - - - - - -
24/05:30am 23.2 CALM 0 0 1012.3 - 0.0 - - - - - - -
24/05:00am 23.4 SW 1 3 1012.1 - 0.0 - - - - - - -
24/04:30am 24.0 CALM 0 3 1011.9 - 0.0 - - - - - - -
24/04:00am 24.5 WNW 3 4 1011.8 - 0.0 - - - - - - -
24/03:30am 24.6 WNW 2 4 1011.8 - 0.0 - - - - - - -
24/03:00am 24.6 W 4 5 1012.0 - 0.0 - - - - - - -
24/02:30am 24.8 W 3 5 1012.2 - 0.0 - - - - - - -
24/02:00am 24.8 W 3 4 1012.4 - 0.0 - - - - - - -
24/01:30am 24.5 W 4 7 1012.8 - 0.0 - - - - - - -
24/01:00am 23.6 SW 3 4 1012.9 - 0.0 - - - - - - -
24/12:30am 24.2 WNW 2 5 1012.7 - 0.0 - - - - - - -
24/12:00am 24.5 WNW 3 5 1012.9 - 0.0 - - - - - - -
 
Date/Time
CST
Temp

°C
Wind Pressure Rain
since 9am
mm
Weather Cloud Vis
km
Sea
Height
m
Swell
Dir
 
Speed
knots
Gust
knots
hPa Trend Height
m
Period
s
Dir
23/11:30pm 25.0 NW 4 6 1012.9 - 0.0 - - - - - - -
23/11:00pm 25.3 NW 4 6 1012.9 - 0.0 - - - - - - -
23/10:30pm 25.6 NNW 6 9 1012.7 - 0.0 - - - - - - -
23/10:00pm 25.7 NNW 6 7 1012.9 - 0.0 - - - - - - -
23/09:30pm 25.8 NNW 6 8 1012.6 - 0.0 - - - - - - -
23/09:00pm 25.8 N 6 7 1012.4 - 0.0 - - - - - - -
23/08:30pm 26.1 N 7 8 1012.1 - 0.0 - - - - - - -
23/08:00pm 26.2 N 7 10 1012.0 - 0.0 - - - - - - -
23/07:30pm 26.5 N 7 9 1011.6 - 0.0 - - - - - - -
23/07:00pm 26.8 N 7 10 1011.5 - 0.0 - - - - - - -
23/06:30pm 27.3 NNW 9 13 1011.3 - 0.0 - - - - - - -
23/06:00pm 27.7 NNW 10 15 1011.2 - 0.0 - - - - - - -
23/05:30pm 28.7 NNW 10 14 1011.1 - 0.0 - - - - - - -
23/05:00pm 29.4 NW 11 14 1011.0 - 0.0 - - - - - - -
23/04:30pm 30.0 NNW 10 13 1011.1 - 0.0 - - - - - - -
23/04:00pm 29.9 NW 10 13 1011.1 - 0.0 - - - - - - -
23/03:30pm 30.8 NNW 10 16 1011.2 - 0.0 - - - - - - -
23/03:00pm 30.3 NW 9 13 1011.5 - 0.0 - - - - - - -
23/02:30pm 30.6 N 12 17 1011.7 - 0.0 - - - - - - -
23/02:00pm 31.2 NNW 9 15 1012.1 - 0.0 - - - - - - -
23/01:30pm 30.9 N 10 16 1012.5 - 0.0 - - - - - - -
23/01:00pm 30.7 N 10 15 1012.9 - 0.0 - - - - - - -
23/12:30pm 30.6 N 11 16 1013.0 - 0.0 - - - - - - -
23/12:00pm 30.0 NW 10 13 1013.3 - 0.0 - - - - - - -
23/11:30am 29.7 NW 9 13 1013.7 - 0.0 - - - - - - -
23/11:00am 29.4 NW 10 14 1013.9 - 0.0 - - - - - - -
23/10:30am 29.3 NW 8 12 1013.8 - 0.0 - - - - - - -
23/10:00am 28.6 W 8 11 1013.8 - 0.0 - - - - - - -
23/09:30am 28.6 WNW 6 9 1013.5 - 0.0 - - - - - - -
23/09:00am 27.2 WNW 5 8 1013.4 - 0.0 - - - - - - -
23/08:30am 25.9 N 4 5 1013.1 - 0.0 - - - - - - -
23/08:00am 24.2 NE 1 3 1012.7 - 0.0 - - - - - - -
23/07:30am 21.6 CALM 0 0 1012.6 - 0.0 - - - - - - -
23/07:00am 21.3 CALM 0 0 1012.3 - 0.0 - - - - - - -
23/06:30am 20.0 CALM 0 0 1012.2 - 0.0 - - - - - - -
23/06:00am 21.0 CALM 0 0 1011.9 - 0.0 - - - - - - -
23/05:30am 21.4 CALM 0 0 1011.8 - 0.0 - - - - - - -
23/05:00am 20.2 CALM 0 0 1011.6 - 0.0 - - - - - - -
23/04:30am 21.5 CALM 0 0 1011.5 - 0.0 - - - - - - -
23/04:00am 21.1 CALM 0 0 1011.5 - 0.0 - - - - - - -
23/03:30am 21.3 CALM 0 0 1011.5 - 0.0 - - - - - - -
23/03:00am 20.6 SW 3 5 1011.7 - 0.0 - - - - - - -
23/02:30am 21.7 E 4 7 1011.6 - 0.0 - - - - - - -
23/02:00am 20.6 CALM 0 0 1012.0 - 0.0 - - - - - - -
23/01:30am 21.9 CALM 0 3 1012.2 - 0.0 - - - - - - -
23/01:00am 21.8 S 1 3 1012.4 - 0.0 - - - - - - -
23/12:30am 21.8 CALM 0 0 1012.6 - 0.0 - - - - - - -
23/12:00am 22.1 CALM 0 0 1012.8 - 0.0 - - - - - - -
 
Date/Time
CST
Temp

°C
Wind Pressure Rain
since 9am
mm
Weather Cloud Vis
km
Sea
Height
m
Swell
Dir
 
Speed
knots
Gust
knots
hPa Trend Height
m
Period
s
Dir
22/11:30pm 22.5 CALM 0 0 1012.8 - 0.0 - - - - - - -
22/11:00pm 22.8 CALM 0 0 1012.9 - 0.0 - - - - - - -
22/10:30pm 23.3 CALM 0 0 1012.7 - 0.0 - - - - - - -
22/10:00pm 23.7 CALM 0 0 1012.7 - 0.0 - - - - - - -
22/09:30pm 23.5 WSW 3 3 1012.4 - 0.0 - - - - - - -
22/09:00pm 24.0 W 2 4 1012.4 - 0.0 - - - - - - -
22/08:30pm 24.8 W 1 3 1012.0 - 0.0 - - - - - - -
22/08:00pm 25.1 W 3 4 1011.9 - 0.0 - - - - - - -
22/07:30pm 25.6 W 4 6 1011.9 - 0.0 - - - - - - -
22/07:00pm 26.2 W 5 7 1011.7 - 0.0 - - - - - - -
22/06:30pm 27.2 W 6 10 1011.4 - 0.0 - - - - - - -
22/06:00pm 28.5 NW 7 10 1011.3 - 0.0 - - - - - - -
22/05:30pm 29.7 NW 7 10 1011.2 - 0.0 - - - - - - -
22/05:00pm 30.2 NW 7 11 1011.2 - 0.0 - - - - - - -
22/04:30pm 31.4 NW 9 13 1011.1 - 0.0 - - - - - - -
22/04:00pm 31.7 NW 9 12 1010.7 - 0.0 - - - - - - -
22/03:30pm 31.9 NW 9 14 1010.9 - 0.0 - - - - - - -
22/03:00pm 32.3 NNW 9 13 1011.2 - 0.0 - - - - - - -
22/02:30pm 32.0 NW 10 15 1011.7 - 0.0 - - - - - - -
22/02:00pm 32.3 NNW 9 14 1012.1 - 0.0 - - - - - - -
22/01:30pm 32.0 N 11 16 1012.4 - 0.0 - - - - - - -
22/01:00pm 33.0 NW 9 14 1012.8 - 0.0 - - - - - - -
22/12:30pm 31.8 NW 8 11 1013.3 - 0.0 - - - - - - -
22/12:00pm 31.9 N 8 12 1013.9 - 0.0 - - - - - - -
22/11:30am 30.7 N 8 13 1014.2 - 0.0 - - - - - - -
22/11:00am 30.5 N 7 11 1014.8 - 0.0 - - - - - - -
22/10:30am 29.9 N 5 9 1015.1 - 0.0 - - - - - - -
22/10:00am 28.2 N 7 9 1015.3 - 0.0 - - - - - - -
22/09:30am 27.7 NNE 7 10 1015.2 - 0.0 - - - - - - -
22/09:00am 26.5 NE 5 7 1015.2 - 0.0 - - - - - - -
22/08:30am 25.0 ENE 5 7 1015.0 - 0.0 - - - - - - -
22/08:00am 23.7 E 5 6 1014.9 - 0.0 - - - - - - -
22/07:30am 22.5 E 2 5 1014.5 - 0.0 - - - - - - -
22/07:00am 20.4 CALM 0 0 1013.9 - 0.0 - - - - - - -
22/06:30am 19.9 CALM 0 3 1013.4 - 0.0 - - - - - - -
22/06:00am 20.9 CALM 0 2 1013.1 - 0.0 - - - - - - -
22/05:30am 20.9 CALM 0 0 1012.9 - 0.0 - - - - - - -
22/05:00am 21.0 NE 2 4 1012.5 - 0.0 - - - - - - -
22/04:30am 21.2 CALM 0 0 1012.2 - 0.0 - - - - - - -
22/04:00am 21.6 CALM 0 0 1012.1 - 0.0 - - - - - - -
22/03:30am 21.5 E 1 4 1012.1 - 0.0 - - - - - - -
22/03:00am 21.6 E 2 5 1012.1 - 0.0 - - - - - - -
22/02:30am 21.8 SE 2 5 1012.3 - 0.0 - - - - - - -
22/02:00am 21.8 CALM 0 0 1012.4 - 0.0 - - - - - - -
22/01:30am 22.2 SW 1 4 1012.5 - 0.0 - - - - - - -
22/01:00am 23.1 S 3 7 1013.0 - 0.0 - - - - - - -
22/12:30am 23.1 N 2 6 1012.8 - 0.0 - - - - - - -
22/12:00am 24.3 CALM 0 3 1013.0 - 0.0 - - - - - - -
 
Date/Time
CST
Temp

°C
Wind Pressure Rain
since 9am
mm
Weather Cloud Vis
km
Sea
Height
m
Swell
Dir
 
Speed
knots
Gust
knots
hPa Trend Height
m
Period
s
Dir
21/11:30pm 24.5 WNW 3 4 1013.2 - 0.0 - - - - - - -
21/11:00pm 24.7 NW 3 5 1013.3 - 0.0 - - - - - - -
21/10:30pm 25.4 NNW 5 6 1013.2 - 0.0 - - - - - - -
21/10:00pm 25.4 WNW 2 5 1013.0 - 0.0 - - - - - - -
21/09:30pm 25.5 CALM 0 4 1012.9 - 0.0 - - - - - - -
21/09:00pm 25.7 NNE 5 6 1012.7 - 0.0 - - - - - - -
21/08:30pm 25.7 W 3 4 1012.1 - 0.0 - - - - - - -
21/08:00pm 26.3 NW 3 5 1011.8 - 0.0 - - - - - - -
21/07:30pm 26.9 W 4 6 1011.8 - 0.0 - - - - - - -
21/07:00pm 28.0 W 4 7 1011.6 - 0.0 - - - - - - -
21/06:30pm 29.4 WNW 5 8 1011.4 - 0.0 - - - - - - -
21/06:00pm 30.6 W 6 11 1011.1 - 0.0 - - - - - - -
21/05:30pm 30.9 WSW 9 15 1010.9 - 0.0 - - - - - - -
21/05:00pm 32.3 WSW 7 11 1010.9 - 0.0 - - - - - - -
21/04:30pm 32.3 W 8 13 1010.9 - 0.0 - - - - - - -
21/04:00pm 32.7 W 8 12 1010.8 - 0.0 - - - - - - -
21/03:30pm 33.4 W 9 14 1010.7 - 0.0 - - - - - - -
21/03:00pm 33.3 W 9 12 1010.9 - 0.0 - - - - - - -
21/02:30pm 33.4 WSW 9 14 1011.2 - 0.0 - - - - - - -
21/02:00pm 32.6 W 10 14 1011.7 - 0.0 - - - - - - -

Other Formats:

Comma delimited format used in spreadsheet applications
http://www.bom.gov.au/fwo/IDD60701/IDD60701.95111.axf

JavaScript Object Notation format (JSON) in row-major order
http://www.bom.gov.au/fwo/IDD60701/IDD60701.95111.json